Benatina, Slovakia

11:40 AM CET on February 18, 2018 (GMT +0100)
Michalovce - Kapušianska, Vrbovec | | Change Station

Elev 364 ft 48.74 °N, 21.95 °E | Updated 15 seconds ago

Overcast
Overcast
37.2 °F
Feels Like 28 °F
N
16.8
Wind Variable Wind from NNE
Gusts 19.9 mph

Today
High -- | Low -- °F
--% Chance of Precip.
Yesterday
High -- | Low -- °F
Precip. -- in
Pressure 30.21 in
Visibility 6.2 miles
Clouds Scattered Clouds 2000 ft
Windchill 28 °F
Dew Point 32 °F
Humidity 80%
Rainfall 0.00 in
Snow Depth Not available.
6:33 AM 4:56 PM
Waxing Crescent, 7% visible
METAR LZKZ 181030Z 01018KT 9999 SCT020 02/M03 Q1023 NOSIG
Pressure 30.21 in
Visibility 6.2 miles
Clouds Scattered Clouds 2000 ft
Windchill 28 °F
Dew Point 32 °F
Humidity 80%
Rainfall 0.00 in
Snow Depth Not available.
6:33 AM 4:56 PM
Waxing Crescent, 7% visible
METAR LZKZ 181030Z 01018KT 9999 SCT020 02/M03 Q1023 NOSIG

Get Severe Weather Alerts

Thanks for signing up!

Be on the lookout for a verification email in your inbox.

You'll start receiving the daily forecast at 6 AM.

×

10-Day Weather Forecast

×

Almanac

Astronomy

Feb. 18, 2018 Rise Set
Actual Time
Civil Twilight
Nautical Twilight
Astronomical Twilight
Moon
Length of Visible Light
Length of Day
Tomorrow will be .
, % of the Moon is Illuminated

Today's Extremes

Country Highs Country Lows

Community

WunderPhotos

Category 6

Welcome to Category 6. This is the collective home for Weather Underground's featured writeups by Dr. Jeff Masters (right), Bob Henson (left), Chris Burt, and other regular contributors.

Nearby

Air Quality

  Air Quality AQ Index Pollutant
Not available.

Snow Depth

Station Depth Elevation

Earthquake Activity

City Distance Mag. Time & Date
Minimum magnitude displayed is 2.5.

Coastal Water Temperatures

Place Temperature

Stations

Nearby Weather Stations

Station Location Temp. Windchill Dew Point Humidity Wind Precip. Elev Updated Type